N179LJ MPTO-MROC
Flight info
| Callsign | N179LJ |
|---|---|
| Flight time | 0h 50m |
| Altitude | 36000 |
| Route | PUDOS DCT ISEBA CUARE3I |
| Aircraft | B752/M-SDE2E3FGHIJ3J4J7RWXY/LB1 |
Departure
| Time | 2026-04-28 04:34 |
|---|---|
| Airport | Tocumen International Airport (MPTO) |
Arrival
| Time | 2026-04-28 05:24 |
|---|---|
| Airport | Juan Santamaría International Airport (MROC) |
| Time | Latitude | Longitude | Altitude | Speed | Heading |
|---|---|---|---|---|---|
| 2026-04-28 04:28 | 9.06198 | -79.38645 | 48 ft | 11 kts | 191° |
| 2026-04-28 04:28 | 9.06120 | -79.38673 | 46 ft | 12 kts | 205° |
| 2026-04-28 04:29 | 9.06045 | -79.38716 | 45 ft | 12 kts | 210° |
| 2026-04-28 04:29 | 9.05968 | -79.38761 | 44 ft | 12 kts | 210° |
| 2026-04-28 04:29 | 9.05890 | -79.38807 | 42 ft | 13 kts | 210° |
| 2026-04-28 04:29 | 9.05805 | -79.38857 | 40 ft | 14 kts | 211° |
| 2026-04-28 04:30 | 9.05723 | -79.38907 | 40 ft | 13 kts | 211° |
| 2026-04-28 04:30 | 9.05644 | -79.38953 | 40 ft | 13 kts | 210° |
| 2026-04-28 04:30 | 9.05561 | -79.38997 | 38 ft | 13 kts | 207° |
| 2026-04-28 04:30 | 9.05474 | -79.39043 | 36 ft | 14 kts | 209° |
| 2026-04-28 04:31 | 9.05383 | -79.39095 | 35 ft | 14 kts | 209° |
| 2026-04-28 04:31 | 9.05291 | -79.39146 | 34 ft | 14 kts | 210° |
| 2026-04-28 04:31 | 9.05203 | -79.39198 | 34 ft | 14 kts | 210° |
| 2026-04-28 04:31 | 9.05119 | -79.39247 | 34 ft | 13 kts | 211° |
| 2026-04-28 04:32 | 9.05040 | -79.39294 | 34 ft | 12 kts | 211° |
| 2026-04-28 04:32 | 9.04965 | -79.39340 | 33 ft | 12 kts | 210° |
| 2026-04-28 04:32 | 9.04892 | -79.39378 | 33 ft | 11 kts | 198° |
| 2026-04-28 04:32 | 9.04828 | -79.39358 | 33 ft | 9 kts | 128° |
| 2026-04-28 04:33 | 9.04794 | -79.39297 | 33 ft | 10 kts | 116° |
| 2026-04-28 04:33 | 9.04813 | -79.39232 | 31 ft | 16 kts | 35° |
| 2026-04-28 04:33 | 9.05062 | -79.39088 | 32 ft | 75 kts | 29° |
| 2026-04-28 04:33 | 9.05743 | -79.38703 | 41 ft | 143 kts | 30° |
| 2026-04-28 04:34 | 9.06757 | -79.38129 | 232 ft | 186 kts | 29° |
| 2026-04-28 04:34 | 9.08055 | -79.37610 | 706 ft | 219 kts | 6° |
| 2026-04-28 04:34 | 9.09676 | -79.37877 | 1036 ft | 262 kts | 336° |
| 2026-04-28 04:34 | 9.11118 | -79.39094 | 1752 ft | 279 kts | 305° |
| 2026-04-28 04:35 | 9.11713 | -79.40902 | 3153 ft | 273 kts | 276° |
| 2026-04-28 04:35 | 9.11409 | -79.42793 | 4142 ft | 281 kts | 247° |
| 2026-04-28 04:35 | 9.10479 | -79.44520 | 5116 ft | 284 kts | 241° |
| 2026-04-28 04:35 | 9.09506 | -79.46244 | 6084 ft | 286 kts | 242° |
| 2026-04-28 04:36 | 9.08634 | -79.48057 | 6974 ft | 289 kts | 252° |
| 2026-04-28 04:36 | 9.08123 | -79.50006 | 7828 ft | 292 kts | 261° |
| 2026-04-28 04:36 | 9.07845 | -79.52051 | 8666 ft | 296 kts | 265° |
| 2026-04-28 04:36 | 9.07689 | -79.54108 | 9468 ft | 300 kts | 268° |
| 2026-04-28 04:37 | 9.07607 | -79.56218 | 10265 ft | 304 kts | 269° |
| 2026-04-28 04:37 | 9.07567 | -79.58437 | 10708 ft | 323 kts | 270° |
| 2026-04-28 04:37 | 9.07557 | -79.60770 | 11070 ft | 342 kts | 270° |
| 2026-04-28 04:37 | 9.07561 | -79.63236 | 11593 ft | 354 kts | 270° |
| 2026-04-28 04:38 | 9.07573 | -79.65718 | 12375 ft | 356 kts | 270° |
| 2026-04-28 04:38 | 9.07589 | -79.68237 | 13086 ft | 360 kts | 270° |
| 2026-04-28 04:38 | 9.07607 | -79.70766 | 13804 ft | 363 kts | 271° |
| 2026-04-28 04:38 | 9.07637 | -79.73332 | 14458 ft | 367 kts | 270° |
| 2026-04-28 04:39 | 9.07652 | -79.75921 | 15084 ft | 372 kts | 271° |
| 2026-04-28 04:39 | 9.07671 | -79.78554 | 15727 ft | 376 kts | 271° |
| 2026-04-28 04:39 | 9.07691 | -79.81190 | 16352 ft | 379 kts | 271° |
| 2026-04-28 04:39 | 9.07712 | -79.83864 | 16970 ft | 383 kts | 271° |
| 2026-04-28 04:40 | 9.07733 | -79.86592 | 17602 ft | 387 kts | 271° |
| 2026-04-28 04:40 | 9.07755 | -79.89323 | 18205 ft | 390 kts | 271° |
| 2026-04-28 04:40 | 9.07777 | -79.92049 | 18839 ft | 392 kts | 271° |
| 2026-04-28 04:40 | 9.07798 | -79.94801 | 19443 ft | 395 kts | 270° |
| 2026-04-28 04:41 | 9.07820 | -79.97573 | 20024 ft | 398 kts | 270° |
| 2026-04-28 04:41 | 9.07841 | -80.00413 | 20594 ft | 401 kts | 270° |
| 2026-04-28 04:41 | 9.07863 | -80.03217 | 21210 ft | 402 kts | 270° |
| 2026-04-28 04:41 | 9.07883 | -80.06028 | 21739 ft | 405 kts | 270° |
| 2026-04-28 04:42 | 9.07905 | -80.08920 | 22288 ft | 407 kts | 270° |
| 2026-04-28 04:42 | 9.07925 | -80.11771 | 22810 ft | 410 kts | 269° |
| 2026-04-28 04:42 | 9.07946 | -80.14641 | 23323 ft | 413 kts | 269° |
| 2026-04-28 04:42 | 9.07967 | -80.17575 | 23821 ft | 416 kts | 269° |
| 2026-04-28 04:43 | 9.07988 | -80.20506 | 24356 ft | 418 kts | 269° |
| 2026-04-28 04:43 | 9.08009 | -80.23426 | 24834 ft | 421 kts | 269° |
| 2026-04-28 04:43 | 9.08029 | -80.26425 | 25362 ft | 423 kts | 269° |
| 2026-04-28 04:43 | 9.08049 | -80.29377 | 25817 ft | 426 kts | 268° |
| 2026-04-28 04:44 | 9.08070 | -80.32405 | 26306 ft | 428 kts | 268° |
| 2026-04-28 04:44 | 9.08090 | -80.35411 | 26747 ft | 431 kts | 268° |
| 2026-04-28 04:44 | 9.08110 | -80.38450 | 27190 ft | 434 kts | 268° |
| 2026-04-28 04:44 | 9.08130 | -80.41515 | 27644 ft | 436 kts | 268° |
| 2026-04-28 04:45 | 9.08149 | -80.44604 | 28046 ft | 440 kts | 268° |
| 2026-04-28 04:45 | 9.08169 | -80.47696 | 28482 ft | 442 kts | 267° |
| 2026-04-28 04:45 | 9.08188 | -80.50790 | 28875 ft | 445 kts | 268° |
| 2026-04-28 04:45 | 9.08207 | -80.53928 | 29326 ft | 446 kts | 268° |
| 2026-04-28 04:46 | 9.08226 | -80.57089 | 29748 ft | 447 kts | 268° |
| 2026-04-28 04:46 | 9.08245 | -80.60216 | 30217 ft | 447 kts | 268° |
| 2026-04-28 04:46 | 9.08263 | -80.63369 | 30573 ft | 449 kts | 268° |
| 2026-04-28 04:46 | 9.08281 | -80.66522 | 31078 ft | 447 kts | 268° |
| 2026-04-28 04:47 | 9.08300 | -80.69653 | 31661 ft | 443 kts | 268° |
| 2026-04-28 04:47 | 9.08318 | -80.72757 | 31954 ft | 441 kts | 268° |
| 2026-04-28 04:47 | 9.08335 | -80.75846 | 31942 ft | 439 kts | 268° |
| 2026-04-28 04:48 | 9.08369 | -80.82031 | 31945 ft | 438 kts | 268° |
| 2026-04-28 04:48 | 9.08408 | -80.88199 | 31945 ft | 440 kts | 269° |
| 2026-04-28 04:49 | 9.08494 | -80.94364 | 31944 ft | 439 kts | 268° |
| 2026-04-28 04:49 | 9.08546 | -81.00566 | 31943 ft | 439 kts | 268° |
| 2026-04-28 04:50 | 9.09094 | -81.06723 | 31950 ft | 444 kts | 281° |
| 2026-04-28 04:50 | 9.10598 | -81.12760 | 31929 ft | 443 kts | 281° |
| 2026-04-28 04:51 | 9.12106 | -81.18770 | 31927 ft | 442 kts | 281° |
| 2026-04-28 04:51 | 9.13632 | -81.24814 | 31928 ft | 443 kts | 281° |
| 2026-04-28 04:52 | 9.15153 | -81.30830 | 31926 ft | 442 kts | 281° |
| 2026-04-28 04:52 | 9.16679 | -81.36863 | 31930 ft | 442 kts | 281° |
| 2026-04-28 04:53 | 9.18199 | -81.42872 | 31929 ft | 442 kts | 281° |
| 2026-04-28 04:53 | 9.19724 | -81.48911 | 31930 ft | 442 kts | 281° |
| 2026-04-28 04:54 | 9.21251 | -81.54958 | 31928 ft | 443 kts | 281° |
| 2026-04-28 04:54 | 9.22771 | -81.60982 | 31923 ft | 442 kts | 281° |
| 2026-04-28 04:55 | 9.24287 | -81.66994 | 31928 ft | 441 kts | 281° |
| 2026-04-28 04:55 | 9.25805 | -81.73022 | 31934 ft | 442 kts | 281° |
| 2026-04-28 04:56 | 9.27318 | -81.79031 | 31937 ft | 441 kts | 281° |
| 2026-04-28 04:56 | 9.28833 | -81.85051 | 31939 ft | 441 kts | 281° |
| 2026-04-28 04:57 | 9.30381 | -81.91077 | 31941 ft | 441 kts | 281° |
| 2026-04-28 04:57 | 9.31917 | -81.97085 | 31942 ft | 441 kts | 281° |
| 2026-04-28 04:58 | 9.33432 | -82.03078 | 31944 ft | 441 kts | 281° |
| 2026-04-28 04:58 | 9.34945 | -82.09096 | 31944 ft | 441 kts | 281° |
| 2026-04-28 04:59 | 9.36452 | -82.15105 | 31951 ft | 439 kts | 281° |
| 2026-04-28 04:59 | 9.37964 | -82.21140 | 31956 ft | 439 kts | 281° |
| 2026-04-28 05:00 | 9.39459 | -82.27113 | 31955 ft | 438 kts | 281° |
| 2026-04-28 05:00 | 9.40954 | -82.33095 | 31969 ft | 441 kts | 281° |
| 2026-04-28 05:01 | 9.42460 | -82.39123 | 31966 ft | 440 kts | 281° |
| 2026-04-28 05:01 | 9.43944 | -82.45123 | 31973 ft | 440 kts | 281° |
| 2026-04-28 05:02 | 9.45432 | -82.51105 | 31976 ft | 440 kts | 281° |
| 2026-04-28 05:02 | 9.46913 | -82.57101 | 31997 ft | 439 kts | 281° |
| 2026-04-28 05:03 | 9.48396 | -82.63104 | 32020 ft | 439 kts | 281° |
| 2026-04-28 05:03 | 9.49902 | -82.69089 | 32058 ft | 438 kts | 281° |
| 2026-04-28 05:04 | 9.51401 | -82.75047 | 32070 ft | 438 kts | 281° |
| 2026-04-28 05:04 | 9.52867 | -82.81041 | 32058 ft | 437 kts | 281° |
| 2026-04-28 05:05 | 9.54323 | -82.87008 | 32042 ft | 438 kts | 281° |
| 2026-04-28 05:05 | 9.55845 | -82.93008 | 32018 ft | 439 kts | 281° |
| 2026-04-28 05:06 | 9.57329 | -82.98956 | 32007 ft | 439 kts | 281° |
| 2026-04-28 05:06 | 9.58084 | -83.01980 | 31701 ft | 442 kts | 281° |
| 2026-04-28 05:06 | 9.58832 | -83.04953 | 31262 ft | 436 kts | 281° |
| 2026-04-28 05:06 | 9.59577 | -83.07893 | 30822 ft | 428 kts | 281° |
| 2026-04-28 05:07 | 9.60317 | -83.10811 | 30311 ft | 425 kts | 281° |
| 2026-04-28 05:07 | 9.61168 | -83.13658 | 29877 ft | 425 kts | 287° |
| 2026-04-28 05:07 | 9.62178 | -83.16507 | 29377 ft | 428 kts | 286° |
| 2026-04-28 05:07 | 9.63167 | -83.19317 | 28886 ft | 427 kts | 287° |
| 2026-04-28 05:08 | 9.64174 | -83.22166 | 28397 ft | 425 kts | 287° |
| 2026-04-28 05:08 | 9.65163 | -83.24957 | 27923 ft | 421 kts | 287° |
| 2026-04-28 05:08 | 9.66150 | -83.27742 | 27453 ft | 417 kts | 287° |
| 2026-04-28 05:08 | 9.67123 | -83.30485 | 26988 ft | 414 kts | 287° |
| 2026-04-28 05:09 | 9.68088 | -83.33207 | 26524 ft | 412 kts | 287° |
| 2026-04-28 05:09 | 9.69054 | -83.35929 | 26055 ft | 409 kts | 288° |
| 2026-04-28 05:09 | 9.70021 | -83.38654 | 25577 ft | 407 kts | 288° |
| 2026-04-28 05:09 | 9.70970 | -83.41331 | 25102 ft | 404 kts | 288° |
| 2026-04-28 05:10 | 9.71920 | -83.44011 | 24621 ft | 402 kts | 288° |
| 2026-04-28 05:10 | 9.72854 | -83.46645 | 24143 ft | 399 kts | 288° |
| 2026-04-28 05:10 | 9.73795 | -83.49303 | 23658 ft | 396 kts | 288° |
| 2026-04-28 05:10 | 9.74672 | -83.51948 | 23169 ft | 392 kts | 282° |
| 2026-04-28 05:11 | 9.74987 | -83.54667 | 22718 ft | 387 kts | 268° |
| 2026-04-28 05:11 | 9.74842 | -83.57361 | 22298 ft | 385 kts | 266° |
| 2026-04-28 05:11 | 9.74678 | -83.60065 | 21858 ft | 384 kts | 266° |
| 2026-04-28 05:11 | 9.74503 | -83.62763 | 21408 ft | 383 kts | 266° |
| 2026-04-28 05:12 | 9.74323 | -83.65420 | 20976 ft | 381 kts | 265° |
| 2026-04-28 05:12 | 9.74138 | -83.68098 | 20548 ft | 378 kts | 265° |
| 2026-04-28 05:12 | 9.73953 | -83.70738 | 20162 ft | 375 kts | 265° |
| 2026-04-28 05:12 | 9.73765 | -83.73370 | 19824 ft | 376 kts | 266° |
| 2026-04-28 05:13 | 9.73577 | -83.76013 | 19450 ft | 378 kts | 266° |
| 2026-04-28 05:13 | 9.73389 | -83.78653 | 18973 ft | 377 kts | 266° |
| 2026-04-28 05:13 | 9.73201 | -83.81274 | 18754 ft | 362 kts | 266° |
| 2026-04-28 05:13 | 9.73022 | -83.83765 | 18751 ft | 343 kts | 266° |
| 2026-04-28 05:14 | 9.72848 | -83.86109 | 18635 ft | 332 kts | 266° |
| 2026-04-28 05:14 | 9.72666 | -83.88479 | 18163 ft | 345 kts | 266° |
| 2026-04-28 05:14 | 9.72324 | -83.92921 | 17411 ft | 339 kts | 266° |
| 2026-04-28 05:14 | 9.71964 | -83.97591 | 16568 ft | 331 kts | 266° |
| 2026-04-28 05:15 | 9.71613 | -84.02133 | 15827 ft | 328 kts | 266° |
| 2026-04-28 05:15 | 9.71261 | -84.06686 | 15061 ft | 327 kts | 266° |
| 2026-04-28 05:15 | 9.70915 | -84.11141 | 14287 ft | 322 kts | 266° |
| 2026-04-28 05:15 | 9.70571 | -84.15575 | 13508 ft | 318 kts | 266° |
| 2026-04-28 05:16 | 9.70233 | -84.19916 | 12793 ft | 314 kts | 266° |
| 2026-04-28 05:16 | 9.70529 | -84.24133 | 12100 ft | 308 kts | 292° |
| 2026-04-28 05:16 | 9.72173 | -84.28028 | 11483 ft | 306 kts | 294° |
| 2026-04-28 05:17 | 9.75536 | -84.35767 | 10216 ft | 300 kts | 295° |
| 2026-04-28 05:17 | 9.77163 | -84.39482 | 9922 ft | 277 kts | 295° |
| 2026-04-28 05:17 | 9.78618 | -84.42806 | 9949 ft | 244 kts | 296° |
| 2026-04-28 05:17 | 9.81056 | -84.44960 | 9828 ft | 260 kts | 344° |
| 2026-04-28 05:18 | 9.83435 | -84.45659 | 9238 ft | 265 kts | 345° |
| 2026-04-28 05:18 | 9.85221 | -84.46171 | 8781 ft | 270 kts | 346° |
| 2026-04-28 05:18 | 9.87080 | -84.46541 | 8332 ft | 270 kts | 4° |
| 2026-04-28 05:18 | 9.88821 | -84.46063 | 8314 ft | 250 kts | 33° |
| 2026-04-28 05:19 | 9.89995 | -84.44862 | 8269 ft | 235 kts | 59° |
| 2026-04-28 05:19 | 9.90758 | -84.43411 | 7984 ft | 234 kts | 63° |
| 2026-04-28 05:19 | 9.91456 | -84.41930 | 7707 ft | 233 kts | 67° |
| 2026-04-28 05:19 | 9.92034 | -84.40392 | 7394 ft | 231 kts | 69° |
| 2026-04-28 05:20 | 9.92591 | -84.38872 | 7017 ft | 223 kts | 68° |
| 2026-04-28 05:20 | 9.93123 | -84.37469 | 6894 ft | 206 kts | 68° |
| 2026-04-28 05:20 | 9.93618 | -84.36164 | 6818 ft | 187 kts | 69° |
| 2026-04-28 05:20 | 9.94065 | -84.34982 | 6663 ft | 173 kts | 69° |
| 2026-04-28 05:21 | 9.94503 | -84.33824 | 6049 ft | 180 kts | 69° |
| 2026-04-28 05:21 | 9.94918 | -84.32725 | 6004 ft | 158 kts | 69° |
| 2026-04-28 05:21 | 9.95339 | -84.31606 | 6031 ft | 179 kts | 69° |
| 2026-04-28 05:21 | 9.95762 | -84.30418 | 5913 ft | 178 kts | 71° |
| 2026-04-28 05:22 | 9.96156 | -84.29268 | 5504 ft | 168 kts | 70° |
| 2026-04-28 05:22 | 9.96538 | -84.28190 | 5115 ft | 159 kts | 69° |
| 2026-04-28 05:22 | 9.96968 | -84.27157 | 4617 ft | 158 kts | 65° |
| 2026-04-28 05:22 | 9.97398 | -84.26149 | 4180 ft | 154 kts | 68° |
| 2026-04-28 05:23 | 9.97768 | -84.25156 | 3743 ft | 152 kts | 70° |
| 2026-04-28 05:23 | 9.98133 | -84.24159 | 3299 ft | 149 kts | 70° |
| 2026-04-28 05:23 | 9.98504 | -84.23214 | 3030 ft | 132 kts | 69° |
| 2026-04-28 05:23 | 9.98844 | -84.22333 | 2978 ft | 141 kts | 68° |
| 2026-04-28 05:24 | 9.99173 | -84.21460 | 2974 ft | 112 kts | 70° |
| 2026-04-28 05:24 | 9.99380 | -84.20909 | 2998 ft | 62 kts | 69° |
| 2026-04-28 05:24 | 9.99505 | -84.20577 | 3015 ft | 40 kts | 69° |
| 2026-04-28 05:24 | 9.99593 | -84.20429 | 3025 ft | 14 kts | 355° |
| 2026-04-28 05:25 | 9.99670 | -84.20438 | 3027 ft | 6 kts | 355° |
| 2026-04-28 05:25 | 9.99706 | -84.20445 | 3028 ft | 1 kts | 340° |